Time;durP1;ratioP1;P1;durP2;ratioP2;P2;SDS_P1;SDS_P2;PMS_P1;PMS_P2;Temp;Humidity;BMP_temperature;BMP_pressure;BME280_temperature;BME280_humidity;BME280_pressure;Samples;Min_cycle;Max_cycle;Signal;HPM_P1;HPM_P2
2024/01/09 00:00:06;;;;;;;14.57;9.33;;;;;;;-2.54;71.52;95609.81;4974990;28;20215;-86
2024/01/09 00:02:32;;;;;;;15.87;9.97;;;;;;;-2.52;71.46;95613.03;4973926;28;20231;-86
2024/01/09 00:04:58;;;;;;;11.57;8.80;;;;;;;-2.42;71.28;95605.69;4974336;28;20224;-86
2024/01/09 00:07:26;;;;;;;13.13;9.47;;;;;;;-2.59;70.81;95574.81;4974884;28;20231;-85
2024/01/09 00:09:53;;;;;;;14.93;9.77;;;;;;;-2.73;71.21;95566.50;4974739;28;20196;-86
2024/01/09 00:12:19;;;;;;;13.50;8.93;;;;;;;-2.80;71.27;95584.50;4975290;28;20299;-86
2024/01/09 00:14:46;;;;;;;13.00;9.77;;;;;;;-2.92;71.48;95572.69;4973879;28;20224;-86
2024/01/09 00:17:12;;;;;;;14.10;9.83;;;;;;;-2.98;71.86;95598.25;4972069;28;20196;-86
2024/01/09 00:19:39;;;;;;;15.27;10.00;;;;;;;-3.02;71.73;95601.84;4974444;28;20226;-85
2024/01/09 00:22:05;;;;;;;14.80;9.53;;;;;;;-2.95;71.64;95612.38;4974190;28;20219;-85
2024/01/09 00:24:35;;;;;;;14.40;9.87;;;;;;;-3.03;71.03;95564.16;4974047;28;20227;-85
2024/01/09 00:27:03;;;;;;;14.57;9.87;;;;;;;-2.85;71.08;95581.47;4973368;28;20715;-85
2024/01/09 00:29:29;;;;;;;14.83;9.80;;;;;;;-2.80;71.16;95579.47;4974752;28;20208;-85
2024/01/09 00:31:56;;;;;;;11.57;9.13;;;;;;;-2.89;70.49;95552.34;4975408;28;20200;-85
2024/01/09 00:34:22;;;;;;;14.67;10.27;;;;;;;-2.91;70.66;95544.09;4973932;28;20231;-86
2024/01/09 00:36:49;;;;;;;14.13;9.70;;;;;;;-2.81;70.60;95542.59;4974431;28;20200;-85
2024/01/09 00:39:15;;;;;;;13.60;10.00;;;;;;;-2.79;69.58;95499.66;4974948;28;20200;-85
2024/01/09 00:41:43;;;;;;;15.50;9.77;;;;;;;-3.06;69.49;95466.94;4974830;28;20197;-86
2024/01/09 00:44:09;;;;;;;14.73;10.80;;;;;;;-3.10;69.75;95474.81;4975483;28;20231;-86
2024/01/09 00:46:36;;;;;;;17.43;11.20;;;;;;;-2.97;69.76;95493.28;4975138;28;20210;-86
2024/01/09 00:49:07;;;;;;;16.10;10.43;;;;;;;-3.07;69.59;95474.59;4974621;28;20204;-85
2024/01/09 00:51:46;;;;;;;14.40;9.93;;;;;;;-3.33;69.15;95451.88;4972425;28;20231;-85
2024/01/09 00:54:21;;;;;;;14.20;9.60;;;;;;;-3.46;69.96;95478.69;4970112;28;20208;-86
2024/01/09 00:56:56;;;;;;;15.20;10.20;;;;;;;-3.54;70.01;95476.66;4974467;28;20199;-85
2024/01/09 00:59:41;;;;;;;16.13;10.33;;;;;;;-3.47;69.95;95479.63;4974889;28;20737;-86
2024/01/09 01:02:42;;;;;;;13.97;9.53;;;;;;;-3.35;69.65;95488.13;4974316;28;20210;-86
2024/01/09 01:05:22;;;;;;;15.13;9.53;;;;;;;-3.28;69.17;95469.22;4962263;28;20310;-86
2024/01/09 01:07:54;;;;;;;14.60;9.50;;;;;;;-3.44;69.74;95474.38;4974974;28;20318;-86
2024/01/09 01:10:33;;;;;;;16.23;10.10;;;;;;;-3.32;70.11;95495.47;4978258;28;20306;-87
2024/01/09 01:13:06;;;;;;;14.60;9.30;;;;;;;-3.40;69.39;95480.03;4977157;28;20262;-85
2024/01/09 01:15:54;;;;;;;15.77;9.80;;;;;;;-3.25;70.04;95511.81;4977230;28;20262;-86
2024/01/09 01:18:20;;;;;;;15.67;9.53;;;;;;;-3.31;69.51;95492.88;4977327;28;20195;-85
2024/01/09 01:20:47;;;;;;;17.70;10.33;;;;;;;-3.22;69.25;95477.19;4976767;28;20200;-85
2024/01/09 01:26:21;;;;;;;15.97;9.87;;;;;;;-3.64;70.16;95493.22;4965977;28;20223;-85
2024/01/09 01:28:49;;;;;;;14.93;9.10;;;;;;;-3.78;70.29;95513.34;4974361;28;20604;-86
2024/01/09 01:31:25;;;;;;;14.50;10.17;;;;;;;-3.85;70.50;95509.63;4975682;28;20255;-86
2024/01/09 01:34:04;;;;;;;16.10;10.13;;;;;;;-3.68;71.10;95556.41;4975163;28;20224;-86
2024/01/09 01:36:39;;;;;;;16.73;9.97;;;;;;;-3.81;70.65;95523.59;4973856;28;20203;-85
2024/01/09 01:39:13;;;;;;;14.33;10.23;;;;;;;-3.56;70.67;95540.56;4973291;28;20289;-86
2024/01/09 01:41:51;;;;;;;15.77;10.10;;;;;;;-3.71;70.54;95537.25;4975403;28;20217;-86
2024/01/09 01:44:22;;;;;;;14.60;8.83;;;;;;;-3.67;70.75;95546.25;4975472;28;20232;-86
2024/01/09 01:46:58;;;;;;;18.57;10.83;;;;;;;-3.52;70.18;95542.81;4974598;28;20314;-85
2024/01/09 01:49:31;;;;;;;14.50;9.27;;;;;;;-3.50;70.21;95538.50;4974160;28;20207;-85
2024/01/09 01:52:00;;;;;;;14.27;9.30;;;;;;;-3.44;70.17;95524.72;4974350;28;20310;-86
2024/01/09 01:54:44;;;;;;;16.53;10.37;;;;;;;-3.42;70.57;95532.16;4971850;28;20302;-86
2024/01/09 01:57:19;;;;;;;15.43;10.27;;;;;;;-3.45;70.17;95530.63;4972005;28;20213;-86
2024/01/09 01:59:57;;;;;;;;;;;;;;;;;;;;;
2024/01/09 02:02:30;;;;;;;16.33;10.77;;;;;;;-3.30;70.51;95552.38;4972556;28;20204;-86
2024/01/09 02:04:57;;;;;;;18.47;10.83;;;;;;;-3.32;70.49;95541.59;4973280;28;20267;-86
2024/01/09 02:07:26;;;;;;;15.27;10.20;;;;;;;-3.33;70.17;95531.63;4973482;28;20224;-85
2024/01/09 02:09:54;;;;;;;17.77;11.03;;;;;;;-3.51;70.31;95521.78;4971713;28;20204;-85
2024/01/09 02:12:20;;;;;;;15.23;10.57;;;;;;;-3.60;71.20;95562.56;4972733;28;20204;-86
2024/01/09 02:14:48;;;;;;;17.83;11.77;;;;;;;-3.65;71.18;95566.25;4973190;28;20232;-85
2024/01/09 02:17:17;;;;;;;15.03;11.00;;;;;;;-3.75;71.17;95571.03;4972202;28;20197;-85
2024/01/09 02:19:43;;;;;;;17.53;10.77;;;;;;;-3.72;71.41;95575.88;4972396;28;20211;-85
2024/01/09 02:22:10;;;;;;;16.33;10.47;;;;;;;-3.77;71.75;95592.13;4973111;28;20633;-86
2024/01/09 02:24:36;;;;;;;19.33;12.17;;;;;;;-3.68;72.00;95622.59;4973366;28;20226;-86
2024/01/09 02:27:12;;;;;;;19.63;11.77;;;;;;;-3.72;72.22;95611.09;4971539;28;20207;-86
2024/01/09 02:29:47;;;;;;;16.53;10.43;;;;;;;-3.59;72.08;95616.22;4973392;28;20259;-85
2024/01/09 02:32:15;;;;;;;17.50;10.60;;;;;;;-3.79;72.27;95624.91;4972315;28;20203;-85
2024/01/09 02:34:43;;;;;;;17.33;11.53;;;;;;;-3.57;72.62;95664.75;4973126;28;20233;-85
2024/01/09 02:37:10;;;;;;;16.73;11.13;;;;;;;-3.52;72.16;95625.84;4972763;28;20773;-84
2024/01/09 02:39:39;;;;;;;17.20;10.87;;;;;;;-3.49;72.12;95630.69;4973165;28;20277;-85
2024/01/09 02:42:06;;;;;;;17.47;11.60;;;;;;;-3.41;72.01;95616.84;4971560;28;20210;-85
2024/01/09 02:44:32;;;;;;;18.00;11.87;;;;;;;-3.24;71.69;95619.97;4972473;28;20223;-87
2024/01/09 02:47:00;;;;;;;18.30;11.97;;;;;;;-3.35;72.01;95619.00;4972530;28;20208;-86
2024/01/09 02:49:28;;;;;;;19.80;11.63;;;;;;;-3.49;71.90;95607.25;4972646;28;20224;-85
2024/01/09 02:51:55;;;;;;;18.23;12.57;;;;;;;-3.36;72.01;95618.19;4972634;28;20212;-85
2024/01/09 02:54:21;;;;;;;18.67;13.07;;;;;;;-3.45;71.65;95590.22;4974146;28;20235;-86
2024/01/09 02:56:48;;;;;;;17.17;11.93;;;;;;;-3.76;71.79;95584.50;4977459;28;20208;-85
2024/01/09 02:59:14;;;;;;;16.93;11.73;;;;;;;-3.84;72.58;95619.34;4975163;28;20204;-85
2024/01/09 03:01:40;;;;;;;17.90;11.40;;;;;;;-3.93;72.52;95619.88;4976145;28;20212;-85
2024/01/09 03:04:08;;;;;;;18.77;11.73;;;;;;;-3.78;72.98;95645.84;4976275;28;20213;-85
2024/01/09 03:06:35;;;;;;;17.33;11.47;;;;;;;-3.83;72.36;95620.94;4975396;28;20202;-86
2024/01/09 03:09:01;;;;;;;19.80;12.17;;;;;;;-3.95;73.02;95652.66;4975422;28;20232;-85
2024/01/09 03:11:28;;;;;;;16.77;11.73;;;;;;;-3.83;72.85;95651.94;4975990;28;20199;-86
2024/01/09 03:13:54;;;;;;;17.97;12.13;;;;;;;-3.89;72.94;95652.31;4974977;28;20223;-85
2024/01/09 03:16:21;;;;;;;18.30;11.73;;;;;;;-3.94;72.79;95641.69;4972834;28;20230;-85
2024/01/09 03:18:47;;;;;;;19.10;12.27;;;;;;;-3.91;73.42;95660.84;4975060;28;20198;-85
2024/01/09 03:21:16;;;;;;;19.13;11.73;;;;;;;-4.05;73.11;95658.31;4975016;28;20207;-85
2024/01/09 03:23:43;;;;;;;20.93;12.67;;;;;;;-3.94;73.14;95668.56;4974791;28;20229;-84
2024/01/09 03:26:09;;;;;;;19.10;12.07;;;;;;;-3.83;72.96;95659.50;4973504;28;20219;-86
2024/01/09 03:28:37;;;;;;;16.73;12.03;;;;;;;-3.70;72.78;95649.56;4974610;28;20250;-86
2024/01/09 03:31:04;;;;;;;18.27;11.70;;;;;;;-3.76;72.10;95608.84;4977412;28;20203;-85
2024/01/09 03:33:30;;;;;;;17.97;12.13;;;;;;;-3.64;71.91;95611.44;4980207;28;20211;-85
2024/01/09 03:35:59;;;;;;;19.07;11.47;;;;;;;-3.54;71.83;95616.75;4980120;28;20219;-86
2024/01/09 03:38:27;;;;;;;18.53;11.43;;;;;;;-3.54;71.30;95571.47;4979849;28;20233;-85
2024/01/09 03:40:53;;;;;;;18.27;11.97;;;;;;;-3.46;71.58;95596.97;4978946;28;20693;-86
2024/01/09 03:43:22;;;;;;;19.97;13.00;;;;;;;-3.48;71.43;95581.19;4978087;28;20903;-87
2024/01/09 03:45:50;;;;;;;17.73;11.93;;;;;;;-3.45;71.05;95557.50;4978900;28;20216;-86
2024/01/09 03:48:19;;;;;;;18.63;12.63;;;;;;;-3.54;71.61;95579.81;4978133;28;20906;-85
2024/01/09 03:50:48;;;;;;;18.13;11.50;;;;;;;-3.52;71.57;95582.25;4979958;28;20208;-85
2024/01/09 03:53:15;;;;;;;20.33;13.00;;;;;;;-3.42;71.25;95572.44;4979780;28;20207;-85
2024/01/09 03:55:46;;;;;;;19.50;12.37;;;;;;;-3.54;71.65;95582.34;4979160;28;20219;-86
2024/01/09 03:58:13;;;;;;;16.37;11.47;;;;;;;-3.69;71.64;95583.25;4979991;28;20207;-84
2024/01/09 04:00:40;;;;;;;17.23;11.53;;;;;;;-3.65;71.83;95592.22;4979052;28;20211;-85
2024/01/09 04:03:06;;;;;;;19.80;12.03;;;;;;;-3.70;71.69;95598.44;4976809;28;20341;-85
2024/01/09 04:05:33;;;;;;;18.50;12.43;;;;;;;-3.73;72.63;95626.28;4979296;28;20235;-84
2024/01/09 04:08:02;;;;;;;18.67;11.83;;;;;;;-3.59;72.70;95633.81;4978893;28;20586;-85
2024/01/09 04:10:28;;;;;;;20.27;12.53;;;;;;;-3.66;72.12;95614.97;4978456;28;20577;-86
2024/01/09 04:12:56;;;;;;;17.17;11.90;;;;;;;-3.67;72.22;95610.84;4978350;28;20200;-86
2024/01/09 04:15:23;;;;;;;16.70;11.67;;;;;;;-3.73;71.92;95599.41;4978755;28;20216;-85
2024/01/09 04:17:49;;;;;;;17.57;11.53;;;;;;;-3.76;72.49;95616.38;4978906;28;20208;-87
2024/01/09 04:20:18;;;;;;;16.97;11.53;;;;;;;-3.64;72.87;95654.22;4978055;28;20204;-88
2024/01/09 04:22:47;;;;;;;20.70;12.20;;;;;;;-3.82;72.69;95638.47;4993463;28;20207;-85
2024/01/09 04:25:14;;;;;;;20.17;12.87;;;;;;;-3.69;72.92;95668.78;4996892;28;20208;-84
2024/01/09 04:27:40;;;;;;;17.30;12.03;;;;;;;-3.58;72.88;95668.97;4996028;28;20689;-83
2024/01/09 04:30:10;;;;;;;20.23;12.90;;;;;;;-3.48;72.10;95641.56;4997102;28;20490;-84
2024/01/09 04:32:36;;;;;;;17.10;12.07;;;;;;;-3.65;71.77;95593.91;4997072;28;20220;-84
2024/01/09 04:35:02;;;;;;;18.67;12.47;;;;;;;-3.87;72.42;95612.00;4996442;28;20300;-84
2024/01/09 04:37:28;;;;;;;19.83;12.50;;;;;;;-3.89;73.27;95664.06;4997164;28;20203;-84
2024/01/09 04:39:55;;;;;;;20.30;11.93;;;;;;;-4.10;73.79;95677.84;4998024;28;20259;-85
2024/01/09 04:42:21;;;;;;;21.10;12.60;;;;;;;-3.91;74.00;95701.88;4988839;28;20204;-84
2024/01/09 04:44:48;;;;;;;17.10;11.03;;;;;;;-4.01;73.76;95680.66;4988769;28;20288;-84
2024/01/09 04:47:16;;;;;;;17.80;12.03;;;;;;;-3.98;73.89;95692.25;4986680;28;20274;-85
2024/01/09 04:49:43;;;;;;;18.20;11.90;;;;;;;-3.96;73.49;95687.94;4980067;28;20727;-85
2024/01/09 04:52:08;;;;;;;18.23;11.47;;;;;;;-3.99;73.34;95666.28;4970148;28;20209;-86
2024/01/09 04:54:35;;;;;;;20.13;11.37;;;;;;;-4.07;73.58;95657.56;4980943;28;20224;-85
2024/01/09 04:57:01;;;;;;;21.50;12.00;;;;;;;-4.15;73.89;95680.63;4980463;28;20203;-85
2024/01/09 04:59:28;;;;;;;15.73;11.00;;;;;;;-4.09;74.39;95704.63;4979841;28;20812;-85
2024/01/09 05:02:01;;;;;;;17.90;10.97;;;;;;;-4.17;74.33;95705.84;4978511;28;20210;-86
2024/01/09 05:04:36;;;;;;;18.83;12.23;;;;;;;-3.97;74.28;95719.00;4978496;28;20643;-85
2024/01/09 05:07:05;;;;;;;19.87;11.10;;;;;;;-4.11;73.99;95693.81;4980070;28;20986;-85
2024/01/09 05:09:36;;;;;;;18.87;11.47;;;;;;;-4.25;74.16;95715.50;4977390;28;20220;-85
2024/01/09 05:12:06;;;;;;;18.17;11.87;;;;;;;-4.14;74.75;95745.06;4977894;28;20666;-85
2024/01/09 05:14:35;;;;;;;22.40;12.47;;;;;;;-4.02;74.33;95748.63;4978240;28;20235;-85
2024/01/09 05:17:02;;;;;;;17.60;11.57;;;;;;;-3.99;73.76;95728.34;4976262;28;20211;-84
2024/01/09 05:19:30;;;;;;;19.17;12.60;;;;;;;-3.91;73.79;95713.66;4976122;28;20212;-85
2024/01/09 05:21:56;;;;;;;18.00;11.77;;;;;;;-3.75;73.78;95723.66;4977664;28;20200;-86
2024/01/09 05:24:23;;;;;;;17.27;11.90;;;;;;;-3.60;72.90;95705.16;4975782;28;20207;-85
2024/01/09 05:26:53;;;;;;;22.73;11.73;;;;;;;-3.44;72.55;95667.34;4977829;28;20224;-88
2024/01/09 05:29:19;;;;;;;16.47;11.07;;;;;;;-3.93;72.58;95640.00;4976262;28;20259;-87
2024/01/09 05:31:46;;;;;;;18.80;11.90;;;;;;;-4.10;72.96;95660.25;4975180;28;20211;-86
2024/01/09 05:34:13;;;;;;;19.37;11.97;;;;;;;-4.05;74.04;95701.03;4975849;28;20261;-87
2024/01/09 05:36:40;;;;;;;17.97;11.77;;;;;;;-4.17;74.21;95728.47;4965645;28;20242;-88
2024/01/09 05:39:07;;;;;;;17.23;11.43;;;;;;;-4.17;74.33;95722.63;4976563;28;20203;-87
2024/01/09 05:41:33;;;;;;;19.30;12.43;;;;;;;-4.15;74.18;95725.84;4973917;28;20207;-88
2024/01/09 05:44:00;;;;;;;17.67;11.70;;;;;;;-4.19;74.63;95735.25;4974537;28;20215;-86
2024/01/09 05:46:26;;;;;;;18.20;11.37;;;;;;;-4.13;74.81;95756.75;4981366;28;20226;-87
2024/01/09 05:48:54;;;;;;;17.37;11.50;;;;;;;-3.99;74.60;95754.28;4993876;28;20230;-87
2024/01/09 05:51:22;;;;;;;20.37;11.97;;;;;;;-4.15;74.63;95743.47;4992199;28;20297;-86
2024/01/09 05:57:05;;;;;;;19.53;11.73;;;;;;;-4.34;75.96;95805.66;4948719;28;20588;-87
2024/01/09 05:59:34;;;;;;;16.23;11.83;;;;;;;-4.36;76.13;95817.50;4973247;28;20235;-87
2024/01/09 06:02:51;;;;;;;;;;;;;;;;;;;;;
2024/01/09 06:05:41;;;;;;;21.27;10.67;;;;;;;-4.10;76.12;95849.59;4972459;28;20226;-88
2024/01/09 06:14:26;;;;;;;17.60;10.93;;;;;;;-4.14;74.66;95774.44;4968301;28;20869;-88
2024/01/09 06:24:15;;;;;;;15.20;11.30;;;;;;;-4.52;74.92;95773.06;4931114;29;20606;-88
2024/01/09 06:27:04;;;;;;;22.30;13.43;;;;;;;-4.46;76.57;95846.50;4947603;28;20294;-88
2024/01/09 06:29:55;;;;;;;;;;;;;;;;;;;;;
2024/01/09 06:35:46;;;;;;;14.73;9.80;;;;;;;-4.60;76.82;95868.09;4951898;29;20222;-87
2024/01/09 06:38:18;;;;;;;19.27;12.03;;;;;;;-4.61;76.63;95871.50;4960413;28;20229;-88
2024/01/09 06:40:47;;;;;;;20.07;12.40;;;;;;;-4.81;76.76;95861.66;4974337;28;20205;-86
2024/01/09 06:43:15;;;;;;;19.20;11.63;;;;;;;-4.78;77.42;95891.63;4976030;28;20212;-87
2024/01/09 06:45:43;;;;;;;17.63;11.73;;;;;;;-4.65;77.17;95891.84;4974424;28;20263;-88
2024/01/09 06:48:10;;;;;;;19.80;12.43;;;;;;;-4.52;77.62;95898.69;4987006;28;20207;-87
2024/01/09 06:50:39;;;;;;;20.50;12.40;;;;;;;-4.48;77.44;95911.09;4995734;28;20224;-88
2024/01/09 06:53:09;;;;;;;19.93;12.43;;;;;;;-4.56;76.60;95871.28;4994003;28;20212;-87
2024/01/09 06:55:42;;;;;;;19.73;11.37;;;;;;;-4.61;76.66;95875.72;4989759;28;20225;-87
2024/01/09 07:01:29;;;;;;;17.07;11.03;;;;;;;-4.62;77.16;95905.03;4966025;28;20204;-88
2024/01/09 07:04:22;;;;;;;17.83;11.03;;;;;;;-4.87;77.36;95890.41;4970189;28;20201;-87
2024/01/09 07:09:29;;;;;;;19.87;11.60;;;;;;;-4.82;78.28;95954.66;4962549;28;20728;-87
2024/01/09 07:12:30;;;;;;;17.07;10.37;;;;;;;-4.75;78.29;95959.28;4972055;28;20206;-88
2024/01/09 07:15:01;;;;;;;18.73;11.67;;;;;;;-4.68;78.69;95964.84;4971751;28;20872;-87
2024/01/09 07:17:34;;;;;;;18.20;11.97;;;;;;;-4.61;78.76;95981.22;4971186;28;20671;-87
2024/01/09 07:20:19;;;;;;;17.43;11.80;;;;;;;-4.63;78.12;95953.69;4973141;28;20221;-87
2024/01/09 07:22:48;;;;;;;17.20;10.73;;;;;;;-4.68;77.44;95917.13;4972478;28;20291;-88
2024/01/09 07:25:32;;;;;;;17.40;11.30;;;;;;;-4.53;76.64;95893.75;4972739;28;20294;-88
2024/01/09 07:27:59;;;;;;;17.00;11.13;;;;;;;-4.40;76.62;95894.72;4973740;28;20250;-87
2024/01/09 07:30:37;;;;;;;21.93;13.73;;;;;;;-4.56;75.27;95836.09;4972582;28;20218;-87
2024/01/09 07:33:22;;;;;;;24.37;13.03;;;;;;;-4.61;75.33;95828.00;4971986;28;20611;-87
2024/01/09 07:39:14;;;;;;;26.17;15.53;;;;;;;-4.77;76.12;95849.75;4966408;28;20219;-88
2024/01/09 07:41:41;;;;;;;19.73;12.57;;;;;;;-4.78;76.45;95871.53;4972946;28;20410;-87
2024/01/09 07:44:17;;;;;;;18.97;12.33;;;;;;;-4.70;76.26;95861.13;4972372;28;20224;-86
2024/01/09 07:53:20;;;;;;;16.13;10.73;;;;;;;-4.65;74.49;95824.84;4975392;28;20206;-87
2024/01/09 07:59:09;;;;;;;17.73;11.33;;;;;;;-4.39;72.93;95750.59;4958383;28;20193;-86
2024/01/09 08:01:57;;;;;;;17.73;11.30;;;;;;;-4.23;72.67;95743.88;4976716;28;20200;-88
2024/01/09 08:04:32;;;;;;;17.53;11.43;;;;;;;-4.06;71.90;95707.78;4974814;28;20289;-88
2024/01/09 08:07:36;;;;;;;18.70;11.43;;;;;;;-4.21;70.76;95634.00;4973795;28;20200;-87
2024/01/09 08:10:30;;;;;;;20.13;11.57;;;;;;;-4.30;71.27;95653.81;4953023;29;20229;-88
2024/01/09 08:16:11;;;;;;;16.80;10.73;;;;;;;-4.41;70.32;95608.38;4953643;28;20221;-87
2024/01/09 08:18:46;;;;;;;17.57;11.10;;;;;;;-4.49;71.10;95631.41;4958665;29;20196;-87
2024/01/09 08:24:47;;;;;;;20.13;12.23;;;;;;;-4.63;70.42;95598.72;4963969;28;20244;-86
2024/01/09 08:27:26;;;;;;;20.83;12.20;;;;;;;-4.72;70.65;95605.03;4916883;29;20213;-89
2024/01/09 08:29:59;;;;;;;18.07;11.43;;;;;;;-4.74;70.71;95611.03;4915791;29;20233;-87
2024/01/09 08:33:16;;;;;;;19.63;12.07;;;;;;;-4.93;71.10;95626.28;4916547;29;20906;-85
2024/01/09 08:35:50;;;;;;;18.80;11.00;;;;;;;-4.90;71.35;95636.97;4916397;29;20237;-86
2024/01/09 08:38:55;;;;;;;16.17;11.70;;;;;;;-4.66;70.97;95649.94;4915437;29;20578;-87
2024/01/09 08:45:45;;;;;;;20.97;11.57;;;;;;;-4.44;69.48;95594.28;4821909;29;20243;-86
2024/01/09 08:48:31;;;;;;;17.33;11.27;;;;;;;-4.39;69.22;95554.63;4818392;29;20214;-86
2024/01/09 08:54:52;;;;;;;15.23;10.10;;;;;;;-4.41;68.69;95521.22;4913373;28;20244;-88
2024/01/09 08:58:16;;;;;;;16.77;10.53;;;;;;;-4.84;68.95;95504.47;4968104;28;20213;-86
2024/01/09 09:08:16;;;;;;;16.43;10.50;;;;;;;-4.86;69.23;95554.78;4895447;29;21043;-87
2024/01/09 09:11:15;;;;;;;21.47;11.73;;;;;;;-4.94;70.42;95602.88;4874596;29;20221;-88
2024/01/09 09:21:03;;;;;;;19.00;11.07;;;;;;;-4.28;69.70;95610.13;4875167;29;20272;-88
2024/01/09 09:23:42;;;;;;;21.10;11.37;;;;;;;-4.29;67.61;95502.16;4892977;29;20215;-87
2024/01/09 09:26:55;;;;;;;16.93;11.37;;;;;;;-4.49;68.15;95498.28;4896009;29;20224;-87
2024/01/09 09:32:20;;;;;;;17.57;11.13;;;;;;;-4.61;69.34;95562.56;4975960;28;20225;-87
2024/01/09 09:38:13;;;;;;;19.20;11.00;;;;;;;-4.77;69.71;95588.59;4975747;28;20715;-88
2024/01/09 09:44:09;;;;;;;;;;;;;;;;;;;;;
2024/01/09 09:53:57;;;;;;;18.00;11.07;;;;;;;-4.10;68.78;95565.53;4928960;29;20340;-87
2024/01/09 10:00:54;;;;;;;;;;;;;;;;;;;;;
2024/01/09 10:07:01;;;;;;;16.13;10.40;;;;;;;-4.38;67.73;95490.91;4801577;29;20317;-87
2024/01/09 10:09:37;;;;;;;19.33;12.13;;;;;;;-4.30;68.64;95540.75;4801849;29;20245;-87
2024/01/09 10:12:49;;;;;;;19.07;12.10;;;;;;;-4.13;68.30;95544.78;4788748;29;20660;-88
2024/01/09 10:22:49;;;;;;;20.37;11.97;;;;;;;-4.41;69.35;95585.75;4895101;29;20210;-87
2024/01/09 10:25:53;;;;;;;17.50;11.90;;;;;;;-4.26;69.61;95598.28;4876792;29;20806;-86
2024/01/09 10:28:26;;;;;;;25.20;12.43;;;;;;;-4.27;69.29;95574.06;4935751;29;20218;-88
2024/01/09 10:31:01;;;;;;;18.87;11.70;;;;;;;-3.87;68.68;95575.09;4938680;29;20251;-89
2024/01/09 10:33:40;;;;;;;15.97;11.33;;;;;;;-3.96;68.53;95559.72;4941556;29;20249;-86
2024/01/09 10:36:39;;;;;;;19.63;11.97;;;;;;;-3.95;67.90;95523.59;4933263;29;20231;-87
2024/01/09 10:53:10;;;;;;;20.50;13.10;;;;;;;-3.33;67.73;95517.31;4828588;29;20209;-88
2024/01/09 10:56:15;;;;;;;;;;;;;;;;;;;;;
2024/01/09 10:58:46;;;;;;;20.27;12.73;;;;;;;-3.41;68.35;95531.25;4954221;28;20319;-85
2024/01/09 11:08:05;;;;;;;18.60;12.43;;;;;;;-3.38;68.25;95526.06;4849952;29;20239;-88
2024/01/09 11:20:36;;;;;;;19.30;12.27;;;;;;;-2.94;71.93;95641.69;4951979;28;20245;-88
2024/01/09 11:36:29;;;;;;;19.03;12.13;;;;;;;-3.18;65.30;95335.13;4804668;29;20298;-87
2024/01/09 11:52:19;;;;;;;18.60;11.37;;;;;;;-2.64;61.91;95130.81;4727479;30;20327;-87
2024/01/09 11:58:56;;;;;;;16.13;11.07;;;;;;;-2.64;61.89;95110.66;4747397;29;20570;-85
2024/01/09 12:05:22;;;;;;;20.07;11.83;;;;;;;-2.30;61.51;95111.59;4758234;29;20226;-87
2024/01/09 12:07:57;;;;;;;18.50;11.30;;;;;;;-2.34;61.20;95095.09;4897131;29;20207;-86
2024/01/09 12:16:39;;;;;;;18.43;12.27;;;;;;;-1.92;61.24;95095.38;4932956;28;20229;-87
2024/01/09 12:19:28;;;;;;;17.53;11.90;;;;;;;-1.73;60.91;95072.16;4935190;29;20931;-87
2024/01/09 12:21:54;;;;;;;17.30;12.03;;;;;;;-1.34;60.12;95050.63;4934913;29;20282;-86
2024/01/09 12:24:54;;;;;;;17.93;12.63;;;;;;;-1.51;59.48;94983.78;4938912;29;20740;-87
2024/01/09 12:27:34;;;;;;;16.93;11.80;;;;;;;-1.58;59.12;94953.19;4954052;29;20205;-86
2024/01/09 12:30:32;;;;;;;17.80;12.30;;;;;;;-1.35;63.58;95138.22;4954929;28;20204;-84
2024/01/09 12:33:28;;;;;;;16.30;11.43;;;;;;;-0.47;76.71;95919.53;4949471;28;20242;-85
2024/01/09 12:39:11;;;;;;;18.00;12.17;;;;;;;-1.27;60.76;95113.19;4955659;28;20232;-86
2024/01/09 12:41:50;;;;;;;15.87;11.50;;;;;;;-1.10;69.04;95441.06;4954862;29;20207;-84
2024/01/09 12:47:36;;;;;;;17.50;11.60;;;;;;;-0.14;75.79;95822.84;4932423;29;20205;-83
2024/01/09 12:52:55;;;;;;;17.37;11.70;;;;;;;0.60;65.88;95422.41;4947548;29;20219;-87
2024/01/09 12:55:50;;;;;;;19.23;11.60;;;;;;;0.63;65.85;95393.50;4954346;29;21225;-85
2024/01/09 12:58:41;;;;;;;17.33;11.80;;;;;;;0.71;60.74;95187.69;4938150;29;20217;-85
2024/01/09 13:02:01;;;;;;;17.87;11.70;;;;;;;0.69;64.94;95363.44;4937383;29;20212;-85
2024/01/09 13:10:55;;;;;;;16.80;12.13;;;;;;;0.60;53.83;94703.09;4911945;29;20228;-86
2024/01/09 13:13:47;;;;;;;17.23;12.17;;;;;;;0.27;59.63;94928.84;4947656;29;20201;-84
2024/01/09 13:16:36;;;;;;;19.90;14.60;;;;;;;0.17;58.18;94946.56;4951333;29;20237;-85
2024/01/09 13:22:26;;;;;;;17.73;12.20;;;;;;;0.15;55.08;94760.34;4952383;29;20211;-86
2024/01/09 13:25:37;;;;;;;17.67;11.83;;;;;;;0.27;54.83;94718.75;4953114;29;20223;-87
2024/01/09 13:34:18;;;;;;;17.23;11.30;;;;;;;-0.47;55.95;94716.75;4952217;28;20244;-86
2024/01/09 13:36:49;;;;;;;18.60;10.50;;;;;;;-0.45;56.27;94747.75;4950742;29;20244;-86
2024/01/09 13:49:46;;;;;;;;;;;;;;;;;;;;;
2024/01/09 13:52:41;;;;;;;27.17;18.33;;;;;;;-1.28;56.40;94730.31;4953167;28;20233;-86
2024/01/09 13:55:41;;;;;;;20.17;13.07;;;;;;;-1.50;57.14;94794.34;4952877;28;20232;-87
2024/01/09 13:58:38;;;;;;;15.63;11.53;;;;;;;-1.43;58.16;94850.22;4952488;28;20209;-87
2024/01/09 14:10:59;;;;;;;20.90;12.83;;;;;;;-2.16;59.76;94929.88;4950500;29;20209;-87
2024/01/09 14:13:28;;;;;;;19.20;12.50;;;;;;;-2.28;59.73;94937.53;4873478;29;20280;-87
2024/01/09 14:19:10;;;;;;;14.40;10.07;;;;;;;-2.12;59.94;94976.59;4924985;28;20231;-88
2024/01/09 14:21:49;;;;;;;17.23;10.67;;;;;;;-2.19;59.68;94955.31;4952222;29;20201;-88
2024/01/09 14:24:58;;;;;;;;;;;;;;;;;;;;;
2024/01/09 14:30:36;;;;;;;15.47;10.17;;;;;;;-2.02;59.57;94945.66;4932892;28;20288;-87
2024/01/09 14:39:51;;;;;;;14.47;9.30;;;;;;;-2.07;59.72;94971.22;4937615;29;20196;-88
2024/01/09 14:46:30;;;;;;;16.70;10.13;;;;;;;-2.39;60.33;94981.19;4894004;29;20233;-87
2024/01/09 14:56:01;;;;;;;16.40;9.40;;;;;;;-2.17;60.24;95005.63;4855094;29;20265;-87
2024/01/09 14:58:55;;;;;;;13.37;9.20;;;;;;;-2.47;59.54;94954.03;4817289;29;20251;-90
2024/01/09 15:04:49;;;;;;;16.30;9.40;;;;;;;-2.55;60.48;95006.72;4845223;29;20694;-90
2024/01/09 15:07:41;;;;;;;14.87;9.33;;;;;;;-2.62;60.31;95003.03;4910431;29;20205;-90
2024/01/09 15:13:24;;;;;;;14.83;10.07;;;;;;;-2.61;60.39;95004.63;4937199;28;20217;-91
2024/01/09 15:15:50;;;;;;;14.07;9.57;;;;;;;-2.69;61.00;95027.03;4933510;29;20244;-90
2024/01/09 15:18:51;;;;;;;13.90;9.80;;;;;;;-2.72;61.55;95065.06;4940603;28;20209;-90
2024/01/09 15:21:26;;;;;;;17.57;9.83;;;;;;;-2.83;61.24;95059.97;4939075;29;20197;-87
2024/01/09 15:23:53;;;;;;;15.03;9.90;;;;;;;-2.89;61.14;95053.69;4936350;29;20212;-87
2024/01/09 15:26:26;;;;;;;17.00;9.80;;;;;;;-2.88;61.30;95065.31;5016892;23;20230;-89
2024/01/09 15:29:01;;;;;;;15.97;10.27;;;;;;;-2.91;61.38;95062.25;4909771;29;20575;-89
2024/01/09 15:31:35;;;;;;;15.07;9.83;;;;;;;-2.85;61.48;95074.38;4901885;29;20229;-89
2024/01/09 15:34:23;;;;;;;15.50;9.40;;;;;;;-2.88;61.41;95069.56;4904357;29;20195;-91
2024/01/09 15:36:50;;;;;;;14.20;9.37;;;;;;;-2.99;61.60;95067.81;4892048;29;20210;-87
2024/01/09 15:39:21;;;;;;;17.97;10.07;;;;;;;-2.91;61.93;95085.72;4889538;29;20205;-85
2024/01/09 15:41:53;;;;;;;14.80;9.93;;;;;;;-2.94;61.51;95095.19;4893059;29;20227;-87
2024/01/09 15:44:20;;;;;;;16.57;9.80;;;;;;;-2.93;61.89;95112.72;4893435;29;20211;-86
2024/01/09 15:46:55;;;;;;;12.43;9.47;;;;;;;-2.87;62.15;95119.81;4893704;29;20289;-86
2024/01/09 15:49:28;;;;;;;15.57;9.60;;;;;;;-2.98;61.64;95104.66;4893992;29;20466;-86
2024/01/09 15:51:55;;;;;;;14.43;8.87;;;;;;;-3.04;62.30;95125.22;4893737;29;20234;-87
2024/01/09 15:54:37;;;;;;;16.77;10.37;;;;;;;-3.16;62.06;95118.53;4880288;29;20550;-86
2024/01/09 15:57:09;;;;;;;12.93;8.83;;;;;;;-3.00;62.36;95151.00;4893501;29;20651;-86
2024/01/09 15:59:44;;;;;;;14.53;9.43;;;;;;;-2.97;62.20;95135.69;4894045;29;20261;-86
2024/01/09 16:02:11;;;;;;;16.83;10.27;;;;;;;-2.89;62.01;95151.09;4893858;29;20640;-86
2024/01/09 16:04:46;;;;;;;17.07;11.20;;;;;;;-2.92;61.69;95119.38;4893578;29;20230;-85
2024/01/09 16:07:15;;;;;;;23.50;13.23;;;;;;;-2.81;62.04;95129.47;4893955;29;20206;-86
2024/01/09 16:09:46;;;;;;;24.73;15.87;;;;;;;-2.66;61.79;95127.59;4887913;29;20214;-86
2024/01/09 16:12:41;;;;;;;18.67;12.00;;;;;;;-2.59;61.86;95138.88;4882487;29;20250;-86